sensor_id;sensor_type;location;lat;lon;timestamp;pressure;altitude;pressure_sealevel;temperature;humidity
71344;BME280;59146;43.850;25.948;2023-06-14T00:01:01;100816.13;;;18.22;66.96
71344;BME280;59146;43.850;25.948;2023-06-14T00:03:28;100813.19;;;18.16;66.87
71344;BME280;59146;43.850;25.948;2023-06-14T00:05:54;100809.97;;;18.12;67.30
71344;BME280;59146;43.850;25.948;2023-06-14T00:08:19;100776.00;;;17.98;67.23
71344;BME280;59146;43.850;25.948;2023-06-14T00:10:46;100714.34;;;17.58;67.35
71344;BME280;59146;43.850;25.948;2023-06-14T00:13:12;100761.75;;;17.80;67.46
71344;BME280;59146;43.850;25.948;2023-06-14T00:15:37;100785.94;;;17.85;67.86
71344;BME280;59146;43.850;25.948;2023-06-14T00:18:03;100754.59;;;17.71;68.06
71344;BME280;59146;43.850;25.948;2023-06-14T00:20:31;100826.66;;;18.03;68.64
71344;BME280;59146;43.850;25.948;2023-06-14T00:23:00;100813.53;;;17.92;68.31
71344;BME280;59146;43.850;25.948;2023-06-14T00:25:26;100828.19;;;18.06;68.33
71344;BME280;59146;43.850;25.948;2023-06-14T00:27:52;100771.41;;;17.70;68.54
71344;BME280;59146;43.850;25.948;2023-06-14T00:30:18;100813.38;;;17.94;68.82
71344;BME280;59146;43.850;25.948;2023-06-14T00:32:44;100827.38;;;18.05;68.99
71344;BME280;59146;43.850;25.948;2023-06-14T00:35:10;100821.16;;;17.95;68.76
71344;BME280;59146;43.850;25.948;2023-06-14T00:37:36;100804.00;;;17.80;69.11
71344;BME280;59146;43.850;25.948;2023-06-14T00:40:02;100790.09;;;17.78;69.38
71344;BME280;59146;43.850;25.948;2023-06-14T00:42:29;100801.63;;;17.77;69.26
71344;BME280;59146;43.850;25.948;2023-06-14T00:44:55;100804.00;;;17.80;69.79
71344;BME280;59146;43.850;25.948;2023-06-14T00:47:20;100758.28;;;17.59;69.45
71344;BME280;59146;43.850;25.948;2023-06-14T00:49:47;100730.06;;;17.39;69.78
71344;BME280;59146;43.850;25.948;2023-06-14T00:52:17;100704.84;;;17.25;69.53
71344;BME280;59146;43.850;25.948;2023-06-14T00:54:43;100736.50;;;17.46;69.69
71344;BME280;59146;43.850;25.948;2023-06-14T00:57:12;100792.66;;;17.69;69.75
71344;BME280;59146;43.850;25.948;2023-06-14T00:59:42;100730.59;;;17.33;69.77
71344;BME280;59146;43.850;25.948;2023-06-14T01:02:08;100807.59;;;17.79;69.97
71344;BME280;59146;43.850;25.948;2023-06-14T01:04:34;100729.22;;;17.38;69.62
71344;BME280;59146;43.850;25.948;2023-06-14T01:12:31;100686.09;;;17.08;69.39
71344;BME280;59146;43.850;25.948;2023-06-14T01:15:01;100760.66;;;17.62;69.37
71344;BME280;59146;43.850;25.948;2023-06-14T01:17:28;100738.69;;;17.41;69.40
71344;BME280;59146;43.850;25.948;2023-06-14T01:19:58;100796.78;;;17.82;69.49
71344;BME280;59146;43.850;25.948;2023-06-14T01:22:28;100813.06;;;17.87;69.27
71344;BME280;59146;43.850;25.948;2023-06-14T01:24:54;100790.81;;;17.80;68.93
71344;BME280;59146;43.850;25.948;2023-06-14T01:27:29;100812.50;;;17.84;69.12
71344;BME280;59146;43.850;25.948;2023-06-14T01:29:55;100792.94;;;17.66;69.36
71344;BME280;59146;43.850;25.948;2023-06-14T01:32:27;100755.22;;;17.43;69.14
71344;BME280;59146;43.850;25.948;2023-06-14T01:34:53;100749.25;;;17.41;69.40
71344;BME280;59146;43.850;25.948;2023-06-14T01:37:19;100769.81;;;17.37;69.56
71344;BME280;59146;43.850;25.948;2023-06-14T01:39:47;100808.34;;;17.61;69.79
71344;BME280;59146;43.850;25.948;2023-06-14T01:42:13;100783.31;;;17.44;69.64
71344;BME280;59146;43.850;25.948;2023-06-14T01:44:40;100801.78;;;17.55;69.98
71344;BME280;59146;43.850;25.948;2023-06-14T01:47:07;100810.91;;;17.51;70.24
71344;BME280;59146;43.850;25.948;2023-06-14T01:49:34;100795.69;;;17.43;70.24
71344;BME280;59146;43.850;25.948;2023-06-14T01:52:00;100775.28;;;17.25;70.37
71344;BME280;59146;43.850;25.948;2023-06-14T01:54:26;100778.38;;;17.30;69.98
71344;BME280;59146;43.850;25.948;2023-06-14T01:56:51;100828.63;;;17.60;70.20
71344;BME280;59146;43.850;25.948;2023-06-14T01:59:17;100810.00;;;17.62;69.83
71344;BME280;59146;43.850;25.948;2023-06-14T02:01:42;100677.13;;;16.90;69.44
71344;BME280;59146;43.850;25.948;2023-06-14T02:04:08;100778.03;;;17.44;69.69
71344;BME280;59146;43.850;25.948;2023-06-14T02:06:33;100804.06;;;17.48;70.46
71344;BME280;59146;43.850;25.948;2023-06-14T02:09:01;100783.34;;;17.23;70.88
71344;BME280;59146;43.850;25.948;2023-06-14T02:11:26;100809.28;;;17.39;70.78
71344;BME280;59146;43.850;25.948;2023-06-14T02:13:52;100824.03;;;17.41;71.04
71344;BME280;59146;43.850;25.948;2023-06-14T02:16:18;100823.63;;;17.57;69.73
71344;BME280;59146;43.850;25.948;2023-06-14T02:18:43;100809.25;;;17.50;69.57
71344;BME280;59146;43.850;25.948;2023-06-14T02:21:08;100822.78;;;17.57;69.67
71344;BME280;59146;43.850;25.948;2023-06-14T02:23:34;100794.41;;;17.38;69.15
71344;BME280;59146;43.850;25.948;2023-06-14T02:25:59;100792.91;;;17.45;69.09
71344;BME280;59146;43.850;25.948;2023-06-14T02:28:24;100778.94;;;17.33;69.15
71344;BME280;59146;43.850;25.948;2023-06-14T02:30:50;100773.41;;;17.36;69.14
71344;BME280;59146;43.850;25.948;2023-06-14T02:33:16;100795.31;;;17.48;69.01
71344;BME280;59146;43.850;25.948;2023-06-14T02:35:42;100811.03;;;17.50;69.48
71344;BME280;59146;43.850;25.948;2023-06-14T02:38:08;100854.28;;;17.69;69.86
71344;BME280;59146;43.850;25.948;2023-06-14T02:40:33;100832.06;;;17.72;69.22
71344;BME280;59146;43.850;25.948;2023-06-14T02:42:58;100864.13;;;17.88;68.83
71344;BME280;59146;43.850;25.948;2023-06-14T02:45:24;100805.03;;;17.68;67.88
71344;BME280;59146;43.850;25.948;2023-06-14T02:47:50;100815.16;;;17.84;67.76
71344;BME280;59146;43.850;25.948;2023-06-14T02:50:16;100764.22;;;17.52;67.38
71344;BME280;59146;43.850;25.948;2023-06-14T02:52:43;100859.00;;;17.96;67.95
71344;BME280;59146;43.850;25.948;2023-06-14T02:55:10;100813.97;;;17.77;67.57
71344;BME280;59146;43.850;25.948;2023-06-14T02:57:35;100822.56;;;17.69;67.64
71344;BME280;59146;43.850;25.948;2023-06-14T03:00:01;100814.75;;;17.47;68.59
71344;BME280;59146;43.850;25.948;2023-06-14T03:02:26;100859.94;;;17.65;69.19
71344;BME280;59146;43.850;25.948;2023-06-14T03:04:51;100840.22;;;17.69;68.86
71344;BME280;59146;43.850;25.948;2023-06-14T03:07:17;100813.88;;;18.08;67.00
71344;BME280;59146;43.850;25.948;2023-06-14T03:09:45;100851.88;;;19.73;61.78
71344;BME280;59146;43.850;25.948;2023-06-14T03:12:10;100830.16;;;21.05;56.78
71344;BME280;59146;43.850;25.948;2023-06-14T03:14:36;100871.22;;;22.74;52.53
71344;BME280;59146;43.850;25.948;2023-06-14T03:17:05;100855.47;;;23.29;50.10
71344;BME280;59146;43.850;25.948;2023-06-14T03:19:30;100868.50;;;23.73;48.69
71344;BME280;59146;43.850;25.948;2023-06-14T03:21:56;100853.25;;;24.60;45.75
71344;BME280;59146;43.850;25.948;2023-06-14T03:24:24;100858.00;;;25.34;43.84
71344;BME280;59146;43.850;25.948;2023-06-14T03:26:52;100877.66;;;26.45;41.85
71344;BME280;59146;43.850;25.948;2023-06-14T03:29:18;100875.81;;;27.10;39.77
71344;BME280;59146;43.850;25.948;2023-06-14T03:32:04;100896.59;;;27.44;39.07
71344;BME280;59146;43.850;25.948;2023-06-14T03:34:29;100866.50;;;27.06;39.07
71344;BME280;59146;43.850;25.948;2023-06-14T03:36:55;100835.31;;;27.05;38.95
71344;BME280;59146;43.850;25.948;2023-06-14T03:39:21;100846.91;;;27.76;37.34
71344;BME280;59146;43.850;25.948;2023-06-14T03:41:46;100879.81;;;28.46;36.24
71344;BME280;59146;43.850;25.948;2023-06-14T03:44:15;100892.13;;;28.00;37.43
71344;BME280;59146;43.850;25.948;2023-06-14T03:46:41;100856.94;;;28.22;36.00
71344;BME280;59146;43.850;25.948;2023-06-14T03:49:06;100805.84;;;27.47;36.50
71344;BME280;59146;43.850;25.948;2023-06-14T03:51:32;100872.69;;;28.25;36.01
71344;BME280;59146;43.850;25.948;2023-06-14T03:54:00;100820.00;;;27.69;36.53
71344;BME280;59146;43.850;25.948;2023-06-14T03:56:26;100835.91;;;28.33;35.60
71344;BME280;59146;43.850;25.948;2023-06-14T03:58:52;100878.00;;;29.14;34.69
71344;BME280;59146;43.850;25.948;2023-06-14T04:01:17;100844.88;;;29.00;34.41
71344;BME280;59146;43.850;25.948;2023-06-14T04:03:43;100876.63;;;29.50;34.17
71344;BME280;59146;43.850;25.948;2023-06-14T04:06:08;100848.00;;;30.15;32.45
71344;BME280;59146;43.850;25.948;2023-06-14T04:08:34;100863.75;;;30.75;31.50
71344;BME280;59146;43.850;25.948;2023-06-14T04:11:00;100864.06;;;30.98;31.46
71344;BME280;59146;43.850;25.948;2023-06-14T04:13:26;100892.69;;;31.37;30.54
71344;BME280;59146;43.850;25.948;2023-06-14T04:15:51;100888.63;;;30.00;32.71
71344;BME280;59146;43.850;25.948;2023-06-14T04:18:17;100875.06;;;28.95;34.57
71344;BME280;59146;43.850;25.948;2023-06-14T04:20:43;100882.88;;;28.43;35.32
71344;BME280;59146;43.850;25.948;2023-06-14T04:23:15;100866.28;;;28.67;35.08
71344;BME280;59146;43.850;25.948;2023-06-14T04:25:43;100875.31;;;29.14;34.44
71344;BME280;59146;43.850;25.948;2023-06-14T04:28:13;100906.25;;;29.83;33.48
71344;BME280;59146;43.850;25.948;2023-06-14T04:30:40;100908.88;;;31.06;31.41
71344;BME280;59146;43.850;25.948;2023-06-14T04:33:06;100901.22;;;28.67;34.62
71344;BME280;59146;43.850;25.948;2023-06-14T04:35:32;100862.16;;;27.26;37.29
71344;BME280;59146;43.850;25.948;2023-06-14T04:37:58;100863.03;;;27.54;36.75
71344;BME280;59146;43.850;25.948;2023-06-14T04:40:24;100868.34;;;27.06;37.84
71344;BME280;59146;43.850;25.948;2023-06-14T04:42:50;100872.47;;;28.61;35.51
71344;BME280;59146;43.850;25.948;2023-06-14T04:45:16;100918.66;;;30.17;32.99
71344;BME280;59146;43.850;25.948;2023-06-14T04:47:42;100925.84;;;30.62;32.02
71344;BME280;59146;43.850;25.948;2023-06-14T04:50:09;100897.16;;;29.97;32.86
71344;BME280;59146;43.850;25.948;2023-06-14T04:52:36;100898.25;;;28.96;34.22
71344;BME280;59146;43.850;25.948;2023-06-14T04:55:02;100907.13;;;27.45;36.86
71344;BME280;59146;43.850;25.948;2023-06-14T04:57:28;100908.78;;;27.46;37.11
71344;BME280;59146;43.850;25.948;2023-06-14T04:59:54;100884.94;;;27.79;36.63
71344;BME280;59146;43.850;25.948;2023-06-14T05:02:23;100902.78;;;26.73;38.74
71344;BME280;59146;43.850;25.948;2023-06-14T05:04:49;100912.59;;;26.81;38.98
71344;BME280;59146;43.850;25.948;2023-06-14T05:07:14;100920.28;;;27.40;37.94
71344;BME280;59146;43.850;25.948;2023-06-14T05:09:40;100887.81;;;25.00;42.56
71344;BME280;59146;43.850;25.948;2023-06-14T05:12:05;100898.63;;;25.75;41.49
71344;BME280;59146;43.850;25.948;2023-06-14T05:14:34;100920.63;;;24.86;43.33
71344;BME280;59146;43.850;25.948;2023-06-14T05:16:59;100907.44;;;25.61;41.99
71344;BME280;59146;43.850;25.948;2023-06-14T05:19:25;100897.53;;;26.36;40.10
71344;BME280;59146;43.850;25.948;2023-06-14T05:21:51;100861.88;;;24.70;43.32
71344;BME280;59146;43.850;25.948;2023-06-14T05:24:17;100914.50;;;24.62;44.10
71344;BME280;59146;43.850;25.948;2023-06-14T05:26:43;100884.44;;;24.76;43.65
71344;BME280;59146;43.850;25.948;2023-06-14T05:29:09;100925.81;;;25.10;43.39
71344;BME280;59146;43.850;25.948;2023-06-14T05:31:34;100923.66;;;25.06;43.66
71344;BME280;59146;43.850;25.948;2023-06-14T05:34:00;100854.50;;;25.11;42.29
71344;BME280;59146;43.850;25.948;2023-06-14T05:36:25;100899.47;;;25.30;42.34
71344;BME280;59146;43.850;25.948;2023-06-14T05:38:53;100895.47;;;25.71;41.37
71344;BME280;59146;43.850;25.948;2023-06-14T05:41:24;100897.09;;;25.80;41.15
71344;BME280;59146;43.850;25.948;2023-06-14T05:43:51;100903.13;;;25.74;41.55
71344;BME280;59146;43.850;25.948;2023-06-14T05:46:16;100952.63;;;25.78;42.08
71344;BME280;59146;43.850;25.948;2023-06-14T05:48:47;100924.38;;;25.00;43.45
71344;BME280;59146;43.850;25.948;2023-06-14T05:51:12;100896.59;;;24.31;44.63
71344;BME280;59146;43.850;25.948;2023-06-14T05:53:38;100922.84;;;24.67;44.44
71344;BME280;59146;43.850;25.948;2023-06-14T05:56:03;100945.19;;;24.66;44.60
71344;BME280;59146;43.850;25.948;2023-06-14T05:58:29;100942.00;;;24.07;45.91
71344;BME280;59146;43.850;25.948;2023-06-14T06:00:54;100952.03;;;23.81;47.38
71344;BME280;59146;43.850;25.948;2023-06-14T06:03:20;100962.69;;;23.97;46.89
71344;BME280;59146;43.850;25.948;2023-06-14T06:05:46;100933.00;;;23.68;47.37
71344;BME280;59146;43.850;25.948;2023-06-14T06:08:11;100974.34;;;23.80;47.47
71344;BME280;59146;43.850;25.948;2023-06-14T06:10:37;100885.59;;;22.98;48.66
71344;BME280;59146;43.850;25.948;2023-06-14T06:13:02;100803.88;;;22.14;49.40
71344;BME280;59146;43.850;25.948;2023-06-14T06:15:28;100875.50;;;22.34;50.50
71344;BME280;59146;43.850;25.948;2023-06-14T06:17:53;100959.31;;;22.89;50.72
71344;BME280;59146;43.850;25.948;2023-06-14T06:20:18;100942.28;;;22.82;50.53
71344;BME280;59146;43.850;25.948;2023-06-14T06:22:44;100874.31;;;22.28;51.14
71344;BME280;59146;43.850;25.948;2023-06-14T06:25:10;100939.59;;;22.74;51.42
71344;BME280;59146;43.850;25.948;2023-06-14T06:27:35;100888.38;;;22.54;50.80
71344;BME280;59146;43.850;25.948;2023-06-14T06:30:06;100960.03;;;23.07;50.85
71344;BME280;59146;43.850;25.948;2023-06-14T06:32:32;100890.72;;;22.83;49.99
71344;BME280;59146;43.850;25.948;2023-06-14T06:35:00;100889.91;;;22.99;49.45
71344;BME280;59146;43.850;25.948;2023-06-14T06:37:25;100957.66;;;23.46;49.88
71344;BME280;59146;43.850;25.948;2023-06-14T06:39:51;100967.66;;;23.68;49.33
71344;BME280;59146;43.850;25.948;2023-06-14T06:42:16;100925.84;;;23.85;48.53
71344;BME280;59146;43.850;25.948;2023-06-14T06:44:41;100965.00;;;24.24;49.25
71344;BME280;59146;43.850;25.948;2023-06-14T06:47:07;100965.22;;;24.70;50.09
71344;BME280;59146;43.850;25.948;2023-06-14T06:49:33;100907.91;;;24.88;48.58
71344;BME280;59146;43.850;25.948;2023-06-14T06:52:03;100938.72;;;24.99;48.27
71344;BME280;59146;43.850;25.948;2023-06-14T06:54:29;100960.97;;;25.22;48.11
71344;BME280;59146;43.850;25.948;2023-06-14T06:56:54;100945.88;;;25.60;46.82
71344;BME280;59146;43.850;25.948;2023-06-14T06:59:20;100925.88;;;25.56;45.90
71344;BME280;59146;43.850;25.948;2023-06-14T07:01:46;100918.88;;;25.92;45.87
71344;BME280;59146;43.850;25.948;2023-06-14T07:04:12;100968.63;;;26.38;44.26
71344;BME280;59146;43.850;25.948;2023-06-14T07:06:37;100896.16;;;25.88;44.74
71344;BME280;59146;43.850;25.948;2023-06-14T07:09:03;100909.66;;;25.57;44.60
71344;BME280;59146;43.850;25.948;2023-06-14T07:11:30;100969.75;;;26.44;43.31
71344;BME280;59146;43.850;25.948;2023-06-14T07:13:55;100900.81;;;26.67;42.00
71344;BME280;59146;43.850;25.948;2023-06-14T07:16:21;100835.63;;;26.01;43.04
71344;BME280;59146;43.850;25.948;2023-06-14T07:18:47;100902.22;;;26.19;43.01
71344;BME280;59146;43.850;25.948;2023-06-14T07:21:12;100903.34;;;27.19;40.50
71344;BME280;59146;43.850;25.948;2023-06-14T07:23:38;100946.31;;;27.89;40.09
71344;BME280;59146;43.850;25.948;2023-06-14T07:26:03;100939.81;;;27.98;39.16
71344;BME280;59146;43.850;25.948;2023-06-14T07:28:28;100836.31;;;27.68;38.31
71344;BME280;59146;43.850;25.948;2023-06-14T07:30:54;100924.72;;;28.24;38.62
71344;BME280;59146;43.850;25.948;2023-06-14T07:33:20;100954.00;;;28.47;38.19
71344;BME280;59146;43.850;25.948;2023-06-14T07:35:45;100958.31;;;27.93;38.91
71344;BME280;59146;43.850;25.948;2023-06-14T07:38:11;100931.63;;;27.85;39.02
71344;BME280;59146;43.850;25.948;2023-06-14T07:40:36;100902.94;;;27.85;40.51
71344;BME280;59146;43.850;25.948;2023-06-14T07:43:02;100915.50;;;28.06;39.45
71344;BME280;59146;43.850;25.948;2023-06-14T07:45:27;100880.28;;;28.56;37.64
71344;BME280;59146;43.850;25.948;2023-06-14T07:47:52;100912.69;;;28.48;39.01
71344;BME280;59146;43.850;25.948;2023-06-14T07:50:18;100922.81;;;28.93;38.75
71344;BME280;59146;43.850;25.948;2023-06-14T07:52:45;100917.56;;;29.33;37.35
71344;BME280;59146;43.850;25.948;2023-06-14T07:55:10;100910.56;;;29.32;36.56
71344;BME280;59146;43.850;25.948;2023-06-14T07:57:35;100905.63;;;28.81;38.02
71344;BME280;59146;43.850;25.948;2023-06-14T08:00:02;100890.72;;;28.79;39.26
71344;BME280;59146;43.850;25.948;2023-06-14T08:02:31;100899.06;;;29.03;37.71
71344;BME280;59146;43.850;25.948;2023-06-14T08:04:56;100930.88;;;28.87;38.16
71344;BME280;59146;43.850;25.948;2023-06-14T08:07:25;100938.16;;;28.99;38.22
71344;BME280;59146;43.850;25.948;2023-06-14T08:09:58;100950.50;;;29.28;38.27
71344;BME280;59146;43.850;25.948;2023-06-14T08:12:23;100912.97;;;29.14;37.23
71344;BME280;59146;43.850;25.948;2023-06-14T08:14:48;100897.00;;;29.05;38.18
71344;BME280;59146;43.850;25.948;2023-06-14T08:17:14;100954.66;;;29.50;36.81
71344;BME280;59146;43.850;25.948;2023-06-14T08:19:39;100900.84;;;29.44;36.97
71344;BME280;59146;43.850;25.948;2023-06-14T08:22:06;100932.53;;;29.55;36.67
71344;BME280;59146;43.850;25.948;2023-06-14T08:24:31;100891.31;;;29.41;36.75
71344;BME280;59146;43.850;25.948;2023-06-14T08:26:57;100882.63;;;29.59;35.71
71344;BME280;59146;43.850;25.948;2023-06-14T08:29:26;100928.41;;;29.85;36.27
71344;BME280;59146;43.850;25.948;2023-06-14T08:31:54;100925.69;;;29.46;36.91
71344;BME280;59146;43.850;25.948;2023-06-14T08:34:20;100951.94;;;29.31;38.25
71344;BME280;59146;43.850;25.948;2023-06-14T08:36:45;100919.13;;;28.94;38.39
71344;BME280;59146;43.850;25.948;2023-06-14T08:39:11;100929.75;;;29.22;38.03
71344;BME280;59146;43.850;25.948;2023-06-14T08:41:37;100872.50;;;28.74;38.61
71344;BME280;59146;43.850;25.948;2023-06-14T08:44:02;100911.41;;;28.85;37.60
71344;BME280;59146;43.850;25.948;2023-06-14T08:46:32;100932.22;;;28.63;39.05
71344;BME280;59146;43.850;25.948;2023-06-14T08:48:59;100921.47;;;28.63;38.55
71344;BME280;59146;43.850;25.948;2023-06-14T08:51:31;100890.19;;;27.94;39.36
71344;BME280;59146;43.850;25.948;2023-06-14T08:54:02;100910.72;;;27.80;39.60
71344;BME280;59146;43.850;25.948;2023-06-14T08:56:29;100892.66;;;27.68;39.15
71344;BME280;59146;43.850;25.948;2023-06-14T08:58:57;100859.34;;;27.34;39.36
71344;BME280;59146;43.850;25.948;2023-06-14T09:01:23;100850.91;;;27.16;39.73
71344;BME280;59146;43.850;25.948;2023-06-14T09:03:50;100883.19;;;27.29;40.68
71344;BME280;59146;43.850;25.948;2023-06-14T09:06:16;100835.25;;;26.99;40.24
71344;BME280;59146;43.850;25.948;2023-06-14T09:08:45;100858.25;;;27.29;39.99
71344;BME280;59146;43.850;25.948;2023-06-14T09:11:12;100918.22;;;27.85;38.59
71344;BME280;59146;43.850;25.948;2023-06-14T09:13:39;100877.31;;;27.83;39.45
71344;BME280;59146;43.850;25.948;2023-06-14T09:16:06;100923.00;;;28.51;38.68
71344;BME280;59146;43.850;25.948;2023-06-14T09:18:36;100857.09;;;27.87;37.72
71344;BME280;59146;43.850;25.948;2023-06-14T09:21:02;100917.41;;;28.12;37.58
71344;BME280;59146;43.850;25.948;2023-06-14T09:23:28;100937.09;;;28.19;37.61
71344;BME280;59146;43.850;25.948;2023-06-14T09:25:53;100886.97;;;27.98;37.55
71344;BME280;59146;43.850;25.948;2023-06-14T09:28:19;100902.72;;;28.08;37.37
71344;BME280;59146;43.850;25.948;2023-06-14T09:30:47;100876.38;;;27.69;37.54
71344;BME280;59146;43.850;25.948;2023-06-14T09:33:17;100915.09;;;28.02;35.84
71344;BME280;59146;43.850;25.948;2023-06-14T09:35:45;100874.22;;;27.58;36.13
71344;BME280;59146;43.850;25.948;2023-06-14T09:38:10;100909.72;;;27.81;36.20
71344;BME280;59146;43.850;25.948;2023-06-14T09:40:36;100905.47;;;27.93;35.85
71344;BME280;59146;43.850;25.948;2023-06-14T09:43:06;100874.41;;;27.84;36.08
71344;BME280;59146;43.850;25.948;2023-06-14T09:45:33;100920.28;;;28.38;35.99
71344;BME280;59146;43.850;25.948;2023-06-14T09:47:59;100847.06;;;28.29;35.06
71344;BME280;59146;43.850;25.948;2023-06-14T09:50:25;100858.53;;;28.51;35.01
71344;BME280;59146;43.850;25.948;2023-06-14T09:52:52;100925.91;;;28.84;35.01
71344;BME280;59146;43.850;25.948;2023-06-14T09:55:19;100875.63;;;28.37;35.50
71344;BME280;59146;43.850;25.948;2023-06-14T09:57:45;100905.56;;;28.68;34.98
71344;BME280;59146;43.850;25.948;2023-06-14T10:00:14;100890.50;;;28.74;34.72
71344;BME280;59146;43.850;25.948;2023-06-14T10:02:42;100919.31;;;28.93;34.75
71344;BME280;59146;43.850;25.948;2023-06-14T10:05:15;100898.56;;;28.80;34.57
71344;BME280;59146;43.850;25.948;2023-06-14T10:08:00;100863.88;;;28.45;35.25
71344;BME280;59146;43.850;25.948;2023-06-14T10:10:28;100890.38;;;28.54;35.36
71344;BME280;59146;43.850;25.948;2023-06-14T10:12:54;100908.81;;;28.57;35.80
71344;BME280;59146;43.850;25.948;2023-06-14T10:15:27;100920.44;;;28.64;35.68
71344;BME280;59146;43.850;25.948;2023-06-14T10:18:01;100893.66;;;28.90;34.69
71344;BME280;59146;43.850;25.948;2023-06-14T10:23:10;100873.03;;;29.11;34.28
71344;BME280;59146;43.850;25.948;2023-06-14T10:25:39;100864.81;;;29.32;34.88
71344;BME280;59146;43.850;25.948;2023-06-14T10:28:15;100901.25;;;29.34;34.28
71344;BME280;59146;43.850;25.948;2023-06-14T10:33:55;100882.72;;;28.98;34.34
71344;BME280;59146;43.850;25.948;2023-06-14T10:36:26;100907.25;;;29.36;34.53
71344;BME280;59146;43.850;25.948;2023-06-14T10:41:27;100856.47;;;29.00;34.58
71344;BME280;59146;43.850;25.948;2023-06-14T10:46:35;100892.56;;;28.78;35.35
71344;BME280;59146;43.850;25.948;2023-06-14T10:49:01;100905.56;;;29.16;34.66
71344;BME280;59146;43.850;25.948;2023-06-14T10:51:29;100848.88;;;29.24;33.65
71344;BME280;59146;43.850;25.948;2023-06-14T10:53:59;100873.97;;;29.76;33.20
71344;BME280;59146;43.850;25.948;2023-06-14T10:56:31;100852.19;;;29.45;33.30
71344;BME280;59146;43.850;25.948;2023-06-14T10:58:57;100891.53;;;29.40;35.00
71344;BME280;59146;43.850;25.948;2023-06-14T11:01:31;100872.88;;;29.25;34.66
71344;BME280;59146;43.850;25.948;2023-06-14T11:04:07;100881.81;;;29.65;34.19
71344;BME280;59146;43.850;25.948;2023-06-14T11:06:54;100897.56;;;29.94;33.24
71344;BME280;59146;43.850;25.948;2023-06-14T11:10:18;100901.72;;;29.90;33.43
71344;BME280;59146;43.850;25.948;2023-06-14T11:12:25;100853.66;;;29.67;33.28
71344;BME280;59146;43.850;25.948;2023-06-14T11:14:53;100873.09;;;30.02;33.20
71344;BME280;59146;43.850;25.948;2023-06-14T11:17:18;100841.38;;;30.17;33.02
71344;BME280;59146;43.850;25.948;2023-06-14T11:19:44;100839.31;;;30.06;32.81
71344;BME280;59146;43.850;25.948;2023-06-14T11:22:09;100849.09;;;29.94;33.12
71344;BME280;59146;43.850;25.948;2023-06-14T11:24:35;100889.03;;;30.17;33.18
71344;BME280;59146;43.850;25.948;2023-06-14T11:27:00;100763.38;;;29.45;33.56
71344;BME280;59146;43.850;25.948;2023-06-14T11:29:28;100855.16;;;30.53;32.40
71344;BME280;59146;43.850;25.948;2023-06-14T11:31:54;100889.78;;;31.01;31.99
71344;BME280;59146;43.850;25.948;2023-06-14T11:34:20;100844.22;;;30.42;32.56
71344;BME280;59146;43.850;25.948;2023-06-14T11:36:45;100862.28;;;30.41;32.73
71344;BME280;59146;43.850;25.948;2023-06-14T11:39:12;100841.03;;;29.81;33.20
71344;BME280;59146;43.850;25.948;2023-06-14T11:41:44;100894.84;;;30.14;33.84
71344;BME280;59146;43.850;25.948;2023-06-14T11:44:10;100865.25;;;29.94;33.54
71344;BME280;59146;43.850;25.948;2023-06-14T11:46:37;100805.41;;;29.27;34.74
71344;BME280;59146;43.850;25.948;2023-06-14T11:49:03;100849.09;;;29.55;34.43
71344;BME280;59146;43.850;25.948;2023-06-14T11:51:38;100860.28;;;29.39;34.46
71344;BME280;59146;43.850;25.948;2023-06-14T11:54:05;100827.34;;;29.37;34.58
71344;BME280;59146;43.850;25.948;2023-06-14T11:56:31;100833.34;;;29.65;34.24
71344;BME280;59146;43.850;25.948;2023-06-14T11:58:57;100866.47;;;30.11;33.69
71344;BME280;59146;43.850;25.948;2023-06-14T12:01:23;100844.44;;;30.27;33.33
71344;BME280;59146;43.850;25.948;2023-06-14T12:03:54;100841.50;;;30.48;33.18
71344;BME280;59146;43.850;25.948;2023-06-14T12:06:27;100798.50;;;30.09;33.34
71344;BME280;59146;43.850;25.948;2023-06-14T12:08:58;100864.19;;;30.72;33.27
71344;BME280;59146;43.850;25.948;2023-06-14T12:11:23;100860.00;;;30.25;33.82
71344;BME280;59146;43.850;25.948;2023-06-14T12:13:49;100844.47;;;30.14;33.80
71344;BME280;59146;43.850;25.948;2023-06-14T12:16:14;100854.78;;;30.43;33.55
71344;BME280;59146;43.850;25.948;2023-06-14T12:18:40;100831.81;;;30.21;33.92
71344;BME280;59146;43.850;25.948;2023-06-14T12:21:06;100848.84;;;30.73;33.02
71344;BME280;59146;43.850;25.948;2023-06-14T12:26:04;100805.28;;;30.76;32.40
71344;BME280;59146;43.850;25.948;2023-06-14T12:28:31;100801.66;;;30.50;33.48
71344;BME280;59146;43.850;25.948;2023-06-14T12:30:57;100786.81;;;30.41;33.74
71344;BME280;59146;43.850;25.948;2023-06-14T12:33:24;100829.72;;;30.81;32.92
71344;BME280;59146;43.850;25.948;2023-06-14T12:35:50;100817.53;;;30.72;32.64
71344;BME280;59146;43.850;25.948;2023-06-14T12:38:16;100794.50;;;30.31;32.78
71344;BME280;59146;43.850;25.948;2023-06-14T12:40:42;100840.75;;;30.15;33.64
71344;BME280;59146;43.850;25.948;2023-06-14T12:43:08;100743.53;;;29.27;34.65
71344;BME280;59146;43.850;25.948;2023-06-14T12:45:33;100783.69;;;29.15;35.12
71344;BME280;59146;43.850;25.948;2023-06-14T12:47:58;100827.56;;;29.48;35.12
71344;BME280;59146;43.850;25.948;2023-06-14T12:50:24;100754.69;;;29.37;34.88
71344;BME280;59146;43.850;25.948;2023-06-14T12:52:50;100788.88;;;29.43;34.96
71344;BME280;59146;43.850;25.948;2023-06-14T12:55:15;100802.09;;;29.25;35.80
71344;BME280;59146;43.850;25.948;2023-06-14T12:57:41;100773.91;;;29.07;35.17